Time;durP1;ratioP1;P1;durP2;ratioP2;P2;SDS_P1;SDS_P2;PMS_P1;PMS_P2;Temp;Humidity;BMP_temperature;BMP_pressure;BME280_temperature;BME280_humidity;BME280_pressure;Samples;Min_cycle;Max_cycle;Signal;HPM_P1;HPM_P2
2023/03/11 00:01:11;;;;;;;1.50;1.40;;;;;;;;;;5116645;28;20870;-75
2023/03/11 00:03:42;;;;;;;1.57;1.47;;;;;;;;;;5114829;27;20470;-75
2023/03/11 00:06:14;;;;;;;1.47;1.47;;;;;;;;;;5120257;27;20470;-75
2023/03/11 00:08:45;;;;;;;1.90;1.80;;;;;;;;;;5127510;27;20439;-75
2023/03/11 00:11:21;;;;;;;1.83;1.73;;;;;;;;;;5124230;27;20454;-76
2023/03/11 00:13:54;;;;;;;2.23;2.03;;;;;;;;;;5118597;27;20813;-76
2023/03/11 00:16:25;;;;;;;1.93;1.83;;;;;;;;;;5124345;27;20445;-78
2023/03/11 00:18:59;;;;;;;2.03;1.87;;;;;;;;;;5119491;27;20504;-76
2023/03/11 00:21:54;;;;;;;1.70;1.60;;;;;;;;;;5119513;27;20460;-76
2023/03/11 00:24:32;;;;;;;1.30;1.30;;;;;;;;;;5119641;27;20485;-75
2023/03/11 00:27:03;;;;;;;1.70;1.60;;;;;;;;;;5119925;28;20880;-76
2023/03/11 00:29:42;;;;;;;1.40;1.30;;;;;;;;;;5119991;27;20447;-76
2023/03/11 00:32:12;;;;;;;2.10;2.00;;;;;;;;;;5120089;28;20443;-76
2023/03/11 00:34:59;;;;;;;5.40;2.20;;;;;;;;;;5120499;27;20510;-76
2023/03/11 00:37:29;;;;;;;1.70;1.60;;;;;;;;;;5122314;27;20630;-78
2023/03/11 00:40:07;;;;;;;1.73;1.63;;;;;;;;;;5124321;28;20458;-76
2023/03/11 00:42:42;;;;;;;2.30;2.00;;;;;;;;;;5124882;28;20446;-77
2023/03/11 00:45:20;;;;;;;2.13;1.90;;;;;;;;;;5126761;28;20456;-77
2023/03/11 00:48:02;;;;;;;3.17;1.90;;;;;;;;;;5125225;28;20496;-76
2023/03/11 00:50:39;;;;;;;2.30;2.10;;;;;;;;;;5144232;27;20456;-76
2023/03/11 00:53:10;;;;;;;1.90;1.80;;;;;;;;;;5146669;27;20500;-76
2023/03/11 00:55:46;;;;;;;2.10;2.00;;;;;;;;;;5145828;27;20525;-76
2023/03/11 00:58:29;;;;;;;2.87;2.13;;;;;;;;;;5144984;27;20486;-75
2023/03/11 01:00:59;;;;;;;2.60;2.50;;;;;;;;;;5144826;27;20446;-75
2023/03/11 01:03:41;;;;;;;2.30;2.10;;;;;;;;;;5142387;27;20469;-76
2023/03/11 01:06:14;;;;;;;2.80;2.20;;;;;;;;;;5141897;27;20509;-77
2023/03/11 01:08:45;;;;;;;2.33;2.13;;;;;;;;;;5145636;27;20442;-76
2023/03/11 01:11:29;;;;;;;2.40;2.20;;;;;;;;;;5148253;27;20460;-77
2023/03/11 01:14:00;;;;;;;2.50;2.40;;;;;;;;;;5144675;27;20473;-77
2023/03/11 01:16:33;;;;;;;2.40;2.30;;;;;;;;;;5143520;27;20450;-76
2023/03/11 01:19:03;;;;;;;2.93;2.63;;;;;;;;;;5144343;27;20475;-76
2023/03/11 01:21:31;;;;;;;3.03;2.83;;;;;;;;;;5144521;27;20446;-75
2023/03/11 01:24:01;;;;;;;2.23;2.03;;;;;;;;;;5144027;27;20458;-76
2023/03/11 01:26:43;;;;;;;3.03;2.13;;;;;;;;;;5145407;27;20477;-76
2023/03/11 01:29:13;;;;;;;2.43;2.23;;;;;;;;;;5144784;27;20936;-75
2023/03/11 01:31:42;;;;;;;2.57;2.37;;;;;;;;;;5141243;27;20446;-77
2023/03/11 01:34:12;;;;;;;2.80;2.30;;;;;;;;;;5138740;27;20845;-76
2023/03/11 01:36:45;;;;;;;2.37;2.20;;;;;;;;;;5138788;27;20458;-76
2023/03/11 01:39:14;;;;;;;2.90;2.20;;;;;;;;;;5138796;27;20483;-76
2023/03/11 01:41:49;;;;;;;2.80;2.43;;;;;;;;;;5138997;27;20446;-75
2023/03/11 01:44:21;;;;;;;2.23;2.00;;;;;;;;;;5139293;27;20449;-76
2023/03/11 01:47:10;;;;;;;2.40;2.30;;;;;;;;;;5139510;27;20889;-76
2023/03/11 01:49:41;;;;;;;2.40;2.30;;;;;;;;;;5142239;27;20447;-76
2023/03/11 01:52:21;;;;;;;2.43;2.23;;;;;;;;;;5138436;27;20446;-77
2023/03/11 01:54:54;;;;;;;2.20;2.00;;;;;;;;;;5145153;27;20477;-76
2023/03/11 01:57:27;;;;;;;3.83;2.23;;;;;;;;;;5162151;27;20445;-75
2023/03/11 02:00:00;;;;;;;2.70;2.50;;;;;;;;;;5160600;27;20453;-77
2023/03/11 02:02:37;;;;;;;2.77;2.50;;;;;;;;;;5159899;27;20478;-77
2023/03/11 02:05:07;;;;;;;2.40;2.30;;;;;;;;;;5164053;27;20443;-76
2023/03/11 02:07:51;;;;;;;3.10;2.57;;;;;;;;;;5165205;27;20508;-76
2023/03/11 02:10:22;;;;;;;2.93;2.70;;;;;;;;;;5163879;27;20445;-77
2023/03/11 02:12:53;;;;;;;2.20;2.10;;;;;;;;;;5162814;27;20546;-75
2023/03/11 02:15:25;;;;;;;6.27;2.43;;;;;;;;;;5162185;27;20524;-75
2023/03/11 02:17:55;;;;;;;2.83;2.63;;;;;;;;;;5142622;27;20442;-76
2023/03/11 02:20:28;;;;;;;2.40;2.20;;;;;;;;;;5139852;27;20468;-76
2023/03/11 02:23:01;;;;;;;2.53;2.33;;;;;;;;;;5137551;27;20446;-76
2023/03/11 02:25:35;;;;;;;2.27;2.17;;;;;;;;;;5140748;27;20820;-74
2023/03/11 02:28:09;;;;;;;2.17;2.07;;;;;;;;;;5140780;27;20465;-76
2023/03/11 02:30:37;;;;;;;3.03;1.97;;;;;;;;;;5139289;27;20683;-77
2023/03/11 02:33:05;;;;;;;2.17;2.07;;;;;;;;;;5140174;27;20522;-75
2023/03/11 02:35:36;;;;;;;2.20;2.00;;;;;;;;;;5139716;27;20442;-75
2023/03/11 02:38:03;;;;;;;6.90;2.33;;;;;;;;;;5138456;27;20446;-76
2023/03/11 02:40:42;;;;;;;2.73;2.17;;;;;;;;;;5136877;27;20454;-77
2023/03/11 02:43:14;;;;;;;4.30;2.20;;;;;;;;;;5137826;27;20926;-75
2023/03/11 02:45:47;;;;;;;2.00;1.90;;;;;;;;;;5138841;27;20453;-74
2023/03/11 02:48:19;;;;;;;2.37;2.17;;;;;;;;;;5140372;27;20481;-76
2023/03/11 02:50:48;;;;;;;1.97;1.87;;;;;;;;;;5137447;27;20461;-76
2023/03/11 02:53:16;;;;;;;2.10;2.00;;;;;;;;;;5138090;27;20450;-77
2023/03/11 02:55:43;;;;;;;2.30;2.10;;;;;;;;;;5139028;27;20465;-76
2023/03/11 02:58:13;;;;;;;2.40;2.20;;;;;;;;;;5138362;27;20432;-77
2023/03/11 03:00:41;;;;;;;3.00;2.50;;;;;;;;;;5138370;27;20451;-76
2023/03/11 03:03:09;;;;;;;2.20;2.07;;;;;;;;;;5138090;27;20505;-76
2023/03/11 03:05:42;;;;;;;1.90;1.80;;;;;;;;;;5136237;27;21005;-75
2023/03/11 03:08:18;;;;;;;1.87;1.87;;;;;;;;;;5135568;27;20531;-76
2023/03/11 03:10:47;;;;;;;2.23;2.00;;;;;;;;;;5135469;27;20445;-76
2023/03/11 03:13:24;;;;;;;2.40;2.07;;;;;;;;;;5134849;27;20516;-76
2023/03/11 03:15:52;;;;;;;3.03;1.73;;;;;;;;;;5134903;27;20425;-76
2023/03/11 03:18:23;;;;;;;1.90;1.73;;;;;;;;;;5135046;27;20472;-76
2023/03/11 03:20:54;;;;;;;2.40;1.90;;;;;;;;;;5136372;27;20834;-77
2023/03/11 03:23:34;;;;;;;1.90;1.80;;;;;;;;;;5136113;27;20507;-76
2023/03/11 03:26:02;;;;;;;2.90;1.90;;;;;;;;;;5139262;27;20808;-76
2023/03/11 03:28:33;;;;;;;2.00;1.90;;;;;;;;;;5139805;27;20469;-76
2023/03/11 03:31:11;;;;;;;1.97;1.87;;;;;;;;;;5141869;27;20445;-75
2023/03/11 03:33:39;;;;;;;3.13;1.63;;;;;;;;;;5140569;27;20554;-76
2023/03/11 03:36:08;;;;;;;2.20;2.00;;;;;;;;;;5137789;27;20457;-76
2023/03/11 03:38:39;;;;;;;2.93;2.00;;;;;;;;;;5137043;27;20446;-76
2023/03/11 03:41:17;;;;;;;4.23;1.80;;;;;;;;;;5138330;27;20429;-76
2023/03/11 03:43:49;;;;;;;2.00;1.90;;;;;;;;;;5139406;27;20469;-75
2023/03/11 03:46:18;;;;;;;1.70;1.70;;;;;;;;;;5141646;27;20446;-76
2023/03/11 03:48:49;;;;;;;3.27;2.30;;;;;;;;;;5139841;27;20482;-76
2023/03/11 03:51:18;;;;;;;2.07;2.07;;;;;;;;;;5139649;27;20909;-75
2023/03/11 03:53:51;;;;;;;1.87;1.70;;;;;;;;;;5141236;27;20497;-76
2023/03/11 03:56:25;;;;;;;1.97;1.87;;;;;;;;;;5139049;27;20446;-77
2023/03/11 03:59:01;;;;;;;2.07;1.97;;;;;;;;;;5139626;27;20524;-76
2023/03/11 04:01:29;;;;;;;2.00;1.90;;;;;;;;;;5140642;27;20502;-75
2023/03/11 04:04:02;;;;;;;4.03;1.93;;;;;;;;;;5141467;27;20461;-76
2023/03/11 04:06:30;;;;;;;3.10;2.00;;;;;;;;;;5140751;27;20446;-75
2023/03/11 04:09:01;;;;;;;2.43;1.90;;;;;;;;;;5139940;27;20470;-75
2023/03/11 04:11:29;;;;;;;5.33;2.17;;;;;;;;;;5141711;27;20477;-77
2023/03/11 04:14:02;;;;;;;1.80;1.70;;;;;;;;;;5140953;27;20565;-77
2023/03/11 04:16:30;;;;;;;3.10;2.20;;;;;;;;;;5136581;27;20451;-75
2023/03/11 04:19:08;;;;;;;2.50;2.30;;;;;;;;;;5120780;28;20439;-76
2023/03/11 04:21:38;;;;;;;2.20;2.00;;;;;;;;;;5121649;27;20538;-76
2023/03/11 04:24:07;;;;;;;1.87;1.77;;;;;;;;;;5121202;27;20473;-76
2023/03/11 04:26:36;;;;;;;3.90;1.90;;;;;;;;;;5119792;28;20523;-76
2023/03/11 04:29:09;;;;;;;1.97;1.90;;;;;;;;;;5117329;27;21020;-76
2023/03/11 04:31:37;;;;;;;1.70;1.60;;;;;;;;;;5119439;28;20434;-75
2023/03/11 04:34:09;;;;;;;2.10;2.00;;;;;;;;;;5118334;28;20450;-77
2023/03/11 04:36:37;;;;;;;3.47;2.20;;;;;;;;;;5118357;27;21005;-76
2023/03/11 04:39:10;;;;;;;2.50;2.07;;;;;;;;;;5117991;28;20454;-76
2023/03/11 04:41:41;;;;;;;2.40;2.20;;;;;;;;;;5117804;28;20443;-76
2023/03/11 04:44:16;;;;;;;4.50;1.90;;;;;;;;;;5116448;27;20791;-76
2023/03/11 04:46:45;;;;;;;1.83;1.83;;;;;;;;;;5117694;27;20968;-75
2023/03/11 04:49:21;;;;;;;2.63;2.20;;;;;;;;;;5117277;28;20846;-76
2023/03/11 04:51:53;;;;;;;2.23;2.13;;;;;;;;;;5116872;27;20453;-75
2023/03/11 04:54:24;;;;;;;2.00;1.90;;;;;;;;;;5116720;27;20471;-77
2023/03/11 04:56:52;;;;;;;2.43;2.27;;;;;;;;;;5116197;27;20462;-77
2023/03/11 04:59:25;;;;;;;4.00;2.60;;;;;;;;;;5121304;28;20431;-76
2023/03/11 05:02:02;;;;;;;3.93;2.60;;;;;;;;;;5121382;28;20563;-77
2023/03/11 05:04:31;;;;;;;2.00;1.90;;;;;;;;;;5121333;27;20467;-76
2023/03/11 05:07:02;;;;;;;4.43;2.17;;;;;;;;;;5122150;27;20455;-75
2023/03/11 05:09:30;;;;;;;2.17;1.97;;;;;;;;;;5122782;27;20455;-76
2023/03/11 05:12:03;;;;;;;2.70;2.30;;;;;;;;;;5125037;27;20464;-77
2023/03/11 05:14:32;;;;;;;3.90;2.17;;;;;;;;;;5127617;28;20473;-76
2023/03/11 05:17:00;;;;;;;2.23;2.10;;;;;;;;;;5135433;28;20447;-76
2023/03/11 05:19:33;;;;;;;3.07;2.47;;;;;;;;;;5140878;27;20442;-76
2023/03/11 05:22:01;;;;;;;2.77;2.10;;;;;;;;;;5144797;27;20449;-76
2023/03/11 05:24:36;;;;;;;2.17;2.07;;;;;;;;;;5141769;27;20529;-76
2023/03/11 05:27:04;;;;;;;2.57;2.47;;;;;;;;;;5141984;27;20562;-75
2023/03/11 05:29:35;;;;;;;6.40;2.70;;;;;;;;;;5141028;27;20481;-77
2023/03/11 05:32:07;;;;;;;2.23;2.10;;;;;;;;;;5141974;27;20442;-75
2023/03/11 05:34:35;;;;;;;2.13;1.80;;;;;;;;;;5140870;27;20533;-76
2023/03/11 05:37:06;;;;;;;2.37;2.17;;;;;;;;;;5140197;27;20465;-76
2023/03/11 05:39:36;;;;;;;2.40;2.13;;;;;;;;;;5145720;27;21024;-76
2023/03/11 05:42:12;;;;;;;2.97;1.93;;;;;;;;;;5150195;27;20498;-77
2023/03/11 05:44:51;;;;;;;2.33;2.13;;;;;;;;;;5154285;27;20493;-76
2023/03/11 05:47:20;;;;;;;5.07;2.50;;;;;;;;;;5153916;27;20446;-76
2023/03/11 05:49:51;;;;;;;1.90;1.77;;;;;;;;;;5149822;27;20450;-75
2023/03/11 05:52:23;;;;;;;1.97;1.87;;;;;;;;;;5151594;27;20511;-74
2023/03/11 05:54:54;;;;;;;2.20;1.90;;;;;;;;;;5157735;27;20454;-75
2023/03/11 05:57:23;;;;;;;3.63;2.40;;;;;;;;;;5155887;27;20423;-76
2023/03/11 06:00:10;;;;;;;3.97;2.43;;;;;;;;;;5146669;27;20438;-76
2023/03/11 06:02:42;;;;;;;4.00;2.40;;;;;;;;;;5139057;27;20480;-76
2023/03/11 06:05:13;;;;;;;3.03;1.90;;;;;;;;;;5142630;27;20465;-77
2023/03/11 06:07:47;;;;;;;2.97;2.40;;;;;;;;;;5142893;27;20462;-76
2023/03/11 06:10:16;;;;;;;2.80;2.20;;;;;;;;;;5150386;27;20780;-76
2023/03/11 06:12:44;;;;;;;3.33;1.70;;;;;;;;;;5149417;27;20449;-76
2023/03/11 06:15:14;;;;;;;3.47;2.30;;;;;;;;;;5150226;27;20476;-76
2023/03/11 06:17:44;;;;;;;3.90;1.90;;;;;;;;;;5144901;27;20944;-77
2023/03/11 06:20:12;;;;;;;3.57;1.90;;;;;;;;;;5143958;27;20454;-76
2023/03/11 06:22:44;;;;;;;3.10;1.70;;;;;;;;;;5142850;27;20456;-75
2023/03/11 06:25:17;;;;;;;2.83;1.70;;;;;;;;;;5144173;27;20430;-76
2023/03/11 06:27:52;;;;;;;6.10;1.83;;;;;;;;;;5143708;27;21272;-77
2023/03/11 06:30:22;;;;;;;2.87;2.63;;;;;;;;;;5141503;27;20441;-76
2023/03/11 06:32:57;;;;;;;3.40;2.20;;;;;;;;;;5142672;27;20559;-75
2023/03/11 06:35:24;;;;;;;1.33;1.33;;;;;;;;;;5141861;27;20445;-76
2023/03/11 06:37:52;;;;;;;3.20;2.40;;;;;;;;;;5142257;27;20784;-76
2023/03/11 06:40:20;;;;;;;2.07;1.97;;;;;;;;;;5140787;27;20454;-76
2023/03/11 06:42:49;;;;;;;2.33;2.13;;;;;;;;;;5143985;27;20454;-76
2023/03/11 06:45:17;;;;;;;1.90;1.70;;;;;;;;;;5145340;27;20442;-76
2023/03/11 06:47:48;;;;;;;2.67;2.00;;;;;;;;;;5147459;27;20469;-76
2023/03/11 06:50:16;;;;;;;6.43;1.80;;;;;;;;;;5147882;27;20454;-77
2023/03/11 06:52:47;;;;;;;3.23;2.87;;;;;;;;;;5147863;27;21048;-76
2023/03/11 06:55:17;;;;;;;4.93;2.33;;;;;;;;;;5145736;27;20457;-76
2023/03/11 06:57:46;;;;;;;5.87;2.10;;;;;;;;;;5144265;27;20999;-75
2023/03/11 07:00:16;;;;;;;4.33;2.07;;;;;;;;;;5142968;27;20438;-77
2023/03/11 07:02:47;;;;;;;2.20;2.00;;;;;;;;;;5144767;27;20530;-75
2023/03/11 07:05:21;;;;;;;4.10;2.10;;;;;;;;;;5144855;27;20481;-75
2023/03/11 07:07:56;;;;;;;5.90;2.60;;;;;;;;;;5143600;27;20442;-75
2023/03/11 07:10:25;;;;;;;5.17;2.00;;;;;;;;;;5140964;27;20445;-76
2023/03/11 07:12:53;;;;;;;5.70;1.77;;;;;;;;;;5141994;27;20952;-76
2023/03/11 07:15:26;;;;;;;2.47;1.97;;;;;;;;;;5137592;27;20493;-76
2023/03/11 07:17:58;;;;;;;5.60;2.00;;;;;;;;;;5141087;27;20467;-76
2023/03/11 07:20:31;;;;;;;4.67;2.37;;;;;;;;;;5143563;27;20514;-77
2023/03/11 07:23:00;;;;;;;3.37;1.97;;;;;;;;;;5144911;27;20523;-78
2023/03/11 07:25:29;;;;;;;2.57;1.97;;;;;;;;;;5145127;27;20537;-76
2023/03/11 07:27:59;;;;;;;5.07;2.17;;;;;;;;;;5144984;27;21035;-77
2023/03/11 07:30:34;;;;;;;2.90;2.10;;;;;;;;;;5143499;27;20976;-76
2023/03/11 07:33:01;;;;;;;3.63;2.20;;;;;;;;;;5139687;27;20465;-76
2023/03/11 07:35:31;;;;;;;4.93;2.00;;;;;;;;;;5140212;27;20522;-77
2023/03/11 07:37:59;;;;;;;3.30;1.90;;;;;;;;;;5139340;27;20983;-76
2023/03/11 07:40:29;;;;;;;4.67;2.13;;;;;;;;;;5138139;27;20458;-77
2023/03/11 07:42:57;;;;;;;3.40;2.27;;;;;;;;;;5139549;27;20552;-77
2023/03/11 07:45:28;;;;;;;2.50;1.90;;;;;;;;;;5138203;27;20477;-76
2023/03/11 07:47:56;;;;;;;3.27;1.70;;;;;;;;;;5136443;27;20441;-77
2023/03/11 07:50:27;;;;;;;2.07;1.97;;;;;;;;;;5136507;27;20941;-77
2023/03/11 07:52:57;;;;;;;3.23;2.20;;;;;;;;;;5135918;27;20812;-76
2023/03/11 07:55:33;;;;;;;2.00;1.80;;;;;;;;;;5139765;27;20472;-77
2023/03/11 07:58:01;;;;;;;4.23;2.30;;;;;;;;;;5141652;27;20463;-78
2023/03/11 08:00:31;;;;;;;5.67;2.50;;;;;;;;;;5136731;27;20434;-76
2023/03/11 08:03:08;;;;;;;6.83;2.30;;;;;;;;;;5136309;27;20472;-76
2023/03/11 08:05:41;;;;;;;5.87;2.50;;;;;;;;;;5142029;27;20449;-77
2023/03/11 08:08:10;;;;;;;2.27;1.80;;;;;;;;;;5140611;27;20497;-76
2023/03/11 08:10:39;;;;;;;2.53;1.60;;;;;;;;;;5140340;27;20453;-77
2023/03/11 08:13:07;;;;;;;5.70;1.90;;;;;;;;;;5140921;27;20476;-75
2023/03/11 08:15:34;;;;;;;4.03;1.87;;;;;;;;;;5140383;27;20453;-76
2023/03/11 08:18:07;;;;;;;5.13;2.47;;;;;;;;;;5137251;27;20449;-78
2023/03/11 08:20:36;;;;;;;5.20;2.00;;;;;;;;;;5135974;27;20426;-77
2023/03/11 08:23:06;;;;;;;6.97;4.23;;;;;;;;;;5135937;27;20589;-75
2023/03/11 08:25:39;;;;;;;6.47;3.93;;;;;;;;;;5136870;27;20454;-77
2023/03/11 08:28:07;;;;;;;2.77;1.70;;;;;;;;;;5136533;27;20454;-76
2023/03/11 08:30:38;;;;;;;3.33;2.20;;;;;;;;;;5137176;27;20458;-76
2023/03/11 08:33:07;;;;;;;3.70;2.00;;;;;;;;;;5135864;27;20468;-76
2023/03/11 08:35:35;;;;;;;3.17;1.90;;;;;;;;;;5136304;27;20442;-77
2023/03/11 08:38:03;;;;;;;2.33;1.67;;;;;;;;;;5136805;27;20446;-76
2023/03/11 08:40:31;;;;;;;2.20;1.87;;;;;;;;;;5137229;27;20450;-78
2023/03/11 08:43:06;;;;;;;6.33;1.93;;;;;;;;;;5138381;27;20999;-76
2023/03/11 08:45:36;;;;;;;3.37;1.77;;;;;;;;;;5138907;27;20948;-77
2023/03/11 08:48:07;;;;;;;3.03;2.03;;;;;;;;;;5138605;27;20449;-75
2023/03/11 08:50:43;;;;;;;4.70;2.23;;;;;;;;;;5140330;27;20453;-76
2023/03/11 08:53:20;;;;;;;3.80;2.10;;;;;;;;;;5140519;27;20560;-76
2023/03/11 08:55:48;;;;;;;3.33;1.80;;;;;;;;;;5140268;27;20541;-76
2023/03/11 08:58:20;;;;;;;3.73;1.80;;;;;;;;;;5139046;27;20470;-76
2023/03/11 09:00:48;;;;;;;2.00;1.90;;;;;;;;;;5140307;27;20454;-77
2023/03/11 09:03:19;;;;;;;1.93;1.80;;;;;;;;;;5139688;27;20485;-77
2023/03/11 09:05:47;;;;;;;4.07;2.10;;;;;;;;;;5141861;27;20464;-76
2023/03/11 09:08:15;;;;;;;4.10;2.27;;;;;;;;;;5143771;27;20449;-76
2023/03/11 09:10:46;;;;;;;5.10;1.77;;;;;;;;;;5143421;27;20430;-75
2023/03/11 09:13:21;;;;;;;3.63;2.23;;;;;;;;;;5142046;27;20546;-78
2023/03/11 09:18:33;;;;;;;2.80;1.80;;;;;;;;;;5131613;27;20438;-76
2023/03/11 09:21:01;;;;;;;3.57;1.90;;;;;;;;;;5139354;27;20941;-77
2023/03/11 09:23:30;;;;;;;6.00;2.23;;;;;;;;;;5150222;27;20454;-76
2023/03/11 09:25:58;;;;;;;3.47;2.20;;;;;;;;;;5142056;27;20430;-77
2023/03/11 09:28:26;;;;;;;2.67;1.60;;;;;;;;;;5137248;27;20850;-76
2023/03/11 09:30:55;;;;;;;2.37;1.60;;;;;;;;;;5136557;27;20453;-76
2023/03/11 09:33:23;;;;;;;7.57;3.77;;;;;;;;;;5136003;27;20474;-76
2023/03/11 09:35:51;;;;;;;45.33;28.90;;;;;;;;;;5136325;27;20463;-76
2023/03/11 09:38:18;;;;;;;7.43;5.20;;;;;;;;;;5136714;27;20481;-77
2023/03/11 09:41:00;;;;;;;4.97;1.90;;;;;;;;;;5137172;27;20454;-77
2023/03/11 09:43:39;;;;;;;3.17;1.77;;;;;;;;;;5137068;27;20645;-76
2023/03/11 09:46:20;;;;;;;2.57;2.37;;;;;;;;;;5137931;27;20582;-77
2023/03/11 09:48:50;;;;;;;3.97;1.93;;;;;;;;;;5134825;27;20466;-78
2023/03/11 09:51:21;;;;;;;3.73;2.10;;;;;;;;;;5134730;27;20422;-77
2023/03/11 09:53:51;;;;;;;2.40;1.80;;;;;;;;;;5133957;27;20473;-76
2023/03/11 09:56:23;;;;;;;1.97;1.33;;;;;;;;;;5135524;27;20977;-78
2023/03/11 09:58:55;;;;;;;2.37;2.00;;;;;;;;;;5134341;27;20450;-76
2023/03/11 10:01:26;;;;;;;1.67;1.57;;;;;;;;;;5134746;27;20929;-76
2023/03/11 10:03:57;;;;;;;3.87;1.90;;;;;;;;;;5134014;27;20522;-76
2023/03/11 10:06:26;;;;;;;5.13;1.97;;;;;;;;;;5134799;27;20453;-75
2023/03/11 10:08:59;;;;;;;2.03;1.80;;;;;;;;;;5135947;27;20998;-76
2023/03/11 10:11:33;;;;;;;1.83;1.43;;;;;;;;;;5141354;27;20450;-75
2023/03/11 10:14:05;;;;;;;3.30;1.50;;;;;;;;;;5142554;27;20541;-76
2023/03/11 10:16:40;;;;;;;1.23;1.07;;;;;;;;;;5139870;27;20505;-75
2023/03/11 10:19:21;;;;;;;4.33;1.80;;;;;;;;;;5137643;27;20422;-76
2023/03/11 10:21:53;;;;;;;1.63;1.53;;;;;;;;;;5135961;27;20452;-76
2023/03/11 10:24:33;;;;;;;2.30;1.07;;;;;;;;;;5136115;27;20490;-75
2023/03/11 10:27:07;;;;;;;2.27;1.30;;;;;;;;;;5136643;27;20453;-77
2023/03/11 10:29:40;;;;;;;1.57;1.47;;;;;;;;;;5135545;27;20496;-77
2023/03/11 10:32:16;;;;;;;4.30;1.57;;;;;;;;;;5136395;27;20529;-76
2023/03/11 10:34:48;;;;;;;1.80;1.23;;;;;;;;;;5135159;27;20477;-75
2023/03/11 10:37:20;;;;;;;3.20;1.60;;;;;;;;;;5137007;27;20450;-76
2023/03/11 10:39:48;;;;;;;1.20;0.97;;;;;;;;;;5135446;27;20441;-77
2023/03/11 10:42:27;;;;;;;6.37;5.40;;;;;;;;;;5135454;27;20809;-76
2023/03/11 10:45:04;;;;;;;1.47;1.37;;;;;;;;;;5134942;27;20510;-75
2023/03/11 10:47:37;;;;;;;1.73;1.00;;;;;;;;;;5134890;27;20445;-76
2023/03/11 10:50:08;;;;;;;1.70;1.03;;;;;;;;;;5135905;27;20462;-75
2023/03/11 10:52:44;;;;;;;1.43;0.97;;;;;;;;;;5137173;27;20430;-76
2023/03/11 10:55:18;;;;;;;0.90;0.90;;;;;;;;;;5143335;27;20462;-75
2023/03/11 10:57:50;;;;;;;2.53;1.07;;;;;;;;;;5143488;27;20460;-75
2023/03/11 11:00:30;;;;;;;3.20;1.37;;;;;;;;;;5138573;27;20450;-74
2023/03/11 11:03:05;;;;;;;3.37;1.70;;;;;;;;;;5138161;27;20464;-74
2023/03/11 11:05:43;;;;;;;2.47;1.60;;;;;;;;;;5138962;27;20509;-75
2023/03/11 11:08:18;;;;;;;1.53;1.43;;;;;;;;;;5138010;27;20909;-76
2023/03/11 11:10:58;;;;;;;2.90;1.13;;;;;;;;;;5137894;27;20863;-75
2023/03/11 11:13:29;;;;;;;0.87;0.87;;;;;;;;;;5137137;27;21016;-75
2023/03/11 11:16:02;;;;;;;1.40;1.10;;;;;;;;;;5137176;27;21217;-75
2023/03/11 11:18:43;;;;;;;2.40;1.20;;;;;;;;;;5114295;28;20450;-76
2023/03/11 11:21:15;;;;;;;2.10;1.20;;;;;;;;;;5113204;27;20938;-76
2023/03/11 11:23:44;;;;;;;1.37;1.27;;;;;;;;;;5113268;28;20470;-75
2023/03/11 11:26:20;;;;;;;3.20;1.47;;;;;;;;;;5112737;28;20442;-76
2023/03/11 11:29:06;;;;;;;1.73;1.20;;;;;;;;;;5112650;27;20468;-77
2023/03/11 11:31:35;;;;;;;1.97;1.30;;;;;;;;;;5112987;28;20980;-76
2023/03/11 11:34:26;;;;;;;1.10;1.10;;;;;;;;;;5114667;28;20463;-76
2023/03/11 11:37:04;;;;;;;4.97;1.53;;;;;;;;;;5114108;27;20454;-75
2023/03/11 11:39:36;;;;;;;2.10;1.50;;;;;;;;;;5111753;28;20450;-76
2023/03/11 11:42:10;;;;;;;1.57;1.20;;;;;;;;;;5112764;28;20474;-76
2023/03/11 11:44:40;;;;;;;4.30;1.20;;;;;;;;;;5112333;28;20487;-76
2023/03/11 11:47:17;;;;;;;1.40;1.30;;;;;;;;;;5111892;27;20493;-77
2023/03/11 11:49:58;;;;;;;2.23;1.30;;;;;;;;;;5112017;28;20470;-76
2023/03/11 11:52:32;;;;;;;3.90;1.63;;;;;;;;;;5113803;28;20431;-77
2023/03/11 11:55:03;;;;;;;1.90;1.47;;;;;;;;;;5116436;27;20462;-77
2023/03/11 11:57:30;;;;;;;3.80;1.67;;;;;;;;;;5116239;28;20457;-77
2023/03/11 11:59:59;;;;;;;1.80;1.70;;;;;;;;;;5115690;28;20427;-76
2023/03/11 12:02:41;;;;;;;4.30;1.50;;;;;;;;;;5115199;28;20449;-77
2023/03/11 12:05:15;;;;;;;2.93;1.27;;;;;;;;;;5113743;27;20490;-77
2023/03/11 12:08:02;;;;;;;2.20;1.50;;;;;;;;;;5113543;28;20582;-77
2023/03/11 12:10:44;;;;;;;1.63;1.40;;;;;;;;;;5114273;27;20855;-77
2023/03/11 12:13:21;;;;;;;1.30;1.17;;;;;;;;;;5112088;27;20481;-77
2023/03/11 12:15:50;;;;;;;1.57;1.47;;;;;;;;;;5112565;28;20446;-76
2023/03/11 12:18:23;;;;;;;2.70;1.50;;;;;;;;;;5133343;27;20442;-77
2023/03/11 12:20:54;;;;;;;3.53;1.60;;;;;;;;;;5133888;27;20445;-76
2023/03/11 12:23:28;;;;;;;1.90;1.63;;;;;;;;;;5133684;27;20516;-76
2023/03/11 12:26:03;;;;;;;4.10;2.03;;;;;;;;;;5132627;27;20995;-76
2023/03/11 12:28:38;;;;;;;1.40;1.20;;;;;;;;;;5133490;27;20851;-76
2023/03/11 12:31:09;;;;;;;2.10;1.37;;;;;;;;;;5135695;27;20465;-76
2023/03/11 12:33:38;;;;;;;4.17;2.40;;;;;;;;;;5133885;27;20534;-78
2023/03/11 12:36:09;;;;;;;2.47;1.53;;;;;;;;;;5133793;27;20437;-78
2023/03/11 12:38:37;;;;;;;3.70;1.90;;;;;;;;;;5134024;27;20450;-77
2023/03/11 12:41:06;;;;;;;1.97;1.30;;;;;;;;;;5135028;27;20437;-77
2023/03/11 12:43:54;;;;;;;1.50;1.40;;;;;;;;;;5134161;27;20881;-78
2023/03/11 12:46:22;;;;;;;4.80;1.40;;;;;;;;;;5110033;27;20500;-78
2023/03/11 12:49:06;;;;;;;1.30;1.20;;;;;;;;;;5136402;28;20498;-77
2023/03/11 12:51:43;;;;;;;4.87;1.60;;;;;;;;;;5139829;27;20491;-77
2023/03/11 12:54:29;;;;;;;3.47;1.10;;;;;;;;;;5138246;27;20490;-76
2023/03/11 12:57:01;;;;;;;2.17;1.53;;;;;;;;;;5138526;27;20553;-76
2023/03/11 12:59:57;;;;;;;1.30;1.20;;;;;;;;;;5139664;27;20490;-76
2023/03/11 13:02:31;;;;;;;31.10;22.10;;;;;;;;;;5102422;27;20941;-76
2023/03/11 13:05:00;;;;;;;2.63;1.37;;;;;;;;;;5139162;27;20470;-75
2023/03/11 13:07:43;;;;;;;2.27;1.40;;;;;;;;;;5138852;27;20534;-76
2023/03/11 13:10:22;;;;;;;2.97;1.50;;;;;;;;;;5138991;27;20777;-78
2023/03/11 13:12:51;;;;;;;1.13;1.10;;;;;;;;;;5139049;27;20491;-77
2023/03/11 13:15:40;;;;;;;1.50;1.17;;;;;;;;;;5137204;27;20475;-79
2023/03/11 13:18:19;;;;;;;1.83;1.30;;;;;;;;;;5136465;27;20544;-76
2023/03/11 13:20:49;;;;;;;3.17;1.60;;;;;;;;;;5136110;27;20442;-77
2023/03/11 13:23:32;;;;;;;2.70;1.53;;;;;;;;;;5135822;27;20446;-76
2023/03/11 13:26:31;;;;;;;2.53;1.57;;;;;;;;;;5137081;27;20481;-77
2023/03/11 13:29:11;;;;;;;2.23;1.30;;;;;;;;;;5137319;27;20990;-77
2023/03/11 13:31:46;;;;;;;2.43;1.30;;;;;;;;;;5137948;27;20505;-78
2023/03/11 13:34:15;;;;;;;3.90;1.47;;;;;;;;;;5135838;27;20469;-77
2023/03/11 13:37:03;;;;;;;2.30;1.40;;;;;;;;;;5135021;27;21053;-76
2023/03/11 13:39:47;;;;;;;3.53;1.47;;;;;;;;;;5135127;27;20442;-76
2023/03/11 13:42:20;;;;;;;2.20;1.47;;;;;;;;;;5136219;27;20530;-77
2023/03/11 13:44:48;;;;;;;2.67;1.40;;;;;;;;;;5135457;27;20888;-78
2023/03/11 13:47:17;;;;;;;4.17;1.47;;;;;;;;;;5134231;27;20536;-78
2023/03/11 13:49:46;;;;;;;1.80;1.37;;;;;;;;;;5134121;27;20901;-76
2023/03/11 13:52:15;;;;;;;1.67;1.23;;;;;;;;;;5132988;27;20434;-75
2023/03/11 13:54:47;;;;;;;1.33;1.23;;;;;;;;;;5133446;27;20835;-78
2023/03/11 13:57:21;;;;;;;1.60;1.43;;;;;;;;;;5133474;27;20503;-76
2023/03/11 13:59:53;;;;;;;2.50;1.40;;;;;;;;;;5133992;27;20461;-78
2023/03/11 14:02:22;;;;;;;4.50;1.40;;;;;;;;;;5133925;27;20477;-77
2023/03/11 14:04:51;;;;;;;6.43;2.00;;;;;;;;;;5134512;27;20488;-80
2023/03/11 14:07:27;;;;;;;6.27;1.97;;;;;;;;;;5134182;27;20434;-78
2023/03/11 14:10:10;;;;;;;3.10;1.80;;;;;;;;;;5133870;27;20518;-76
2023/03/11 14:12:39;;;;;;;3.63;1.67;;;;;;;;;;5141823;27;20826;-76
2023/03/11 14:15:08;;;;;;;7.00;1.80;;;;;;;;;;5134673;27;20963;-77
2023/03/11 14:17:35;;;;;;;8.17;2.20;;;;;;;;;;5133360;27;20949;-77
2023/03/11 14:20:05;;;;;;;2.67;1.83;;;;;;;;;;5134133;27;20521;-77
2023/03/11 14:22:33;;;;;;;2.90;1.80;;;;;;;;;;5133605;27;20544;-78
2023/03/11 14:25:07;;;;;;;2.33;1.43;;;;;;;;;;5133988;27;20454;-77
2023/03/11 14:27:34;;;;;;;1.73;1.63;;;;;;;;;;5134236;27;20994;-77
2023/03/11 14:30:03;;;;;;;3.00;1.77;;;;;;;;;;5134691;27;20442;-77
2023/03/11 14:32:32;;;;;;;1.97;1.63;;;;;;;;;;5135218;27;20564;-78
2023/03/11 14:35:19;;;;;;;2.70;1.70;;;;;;;;;;5134098;27;20530;-76
2023/03/11 14:37:46;;;;;;;2.33;1.40;;;;;;;;;;5134878;27;20484;-77
2023/03/11 14:40:29;;;;;;;2.63;1.40;;;;;;;;;;5135128;27;20470;-76
2023/03/11 14:42:57;;;;;;;1.70;1.57;;;;;;;;;;5135960;27;20446;-77
2023/03/11 14:45:31;;;;;;;2.10;1.90;;;;;;;;;;5136322;27;20460;-77
2023/03/11 14:48:04;;;;;;;5.47;1.80;;;;;;;;;;5136814;27;20442;-78
2023/03/11 14:50:33;;;;;;;1.63;1.53;;;;;;;;;;5137768;27;20896;-76
2023/03/11 14:53:13;;;;;;;2.57;1.63;;;;;;;;;;5137191;27;20470;-77
2023/03/11 14:55:50;;;;;;;1.03;1.00;;;;;;;;;;5138816;27;20449;-77
2023/03/11 14:58:27;;;;;;;2.73;1.87;;;;;;;;;;5136584;27;20506;-77
2023/03/11 15:00:59;;;;;;;1.77;1.60;;;;;;;;;;5137059;27;20453;-77
2023/03/11 15:03:31;;;;;;;1.83;1.70;;;;;;;;;;5137294;27;20522;-77
2023/03/11 15:06:02;;;;;;;3.30;1.70;;;;;;;;;;5135977;27;20468;-77
2023/03/11 15:08:35;;;;;;;3.03;1.70;;;;;;;;;;5137289;27;20953;-78
2023/03/11 15:11:24;;;;;;;1.60;1.50;;;;;;;;;;5139513;27;20984;-78
2023/03/11 15:13:55;;;;;;;1.60;1.50;;;;;;;;;;5132274;27;20473;-75
2023/03/11 15:16:35;;;;;;;2.30;1.50;;;;;;;;;;5142123;27;20473;-77
2023/03/11 15:19:18;;;;;;;1.93;1.77;;;;;;;;;;5145821;27;20438;-77